createdAt,value
2023-01-23T00:00:50.864Z,94730.69
2023-01-23T00:01:47.579Z,95134.00
2023-01-23T00:02:44.571Z,95114.97
2023-01-23T00:03:41.818Z,95123.66
2023-01-23T00:04:38.716Z,95064.78
2023-01-23T00:05:35.614Z,95136.31
2023-01-23T00:06:32.443Z,95068.88
2023-01-23T00:07:29.195Z,95145.91
2023-01-23T00:08:27.248Z,95135.31
2023-01-23T00:09:24.125Z,95120.88
2023-01-23T00:10:21.364Z,95116.66
2023-01-23T00:11:21.930Z,95100.31
2023-01-23T00:12:18.770Z,95126.44
2023-01-23T00:13:17.370Z,95064.59
2023-01-23T00:14:14.239Z,95092.53
2023-01-23T00:15:13.189Z,95143.00
2023-01-23T00:16:14.464Z,95141.66
2023-01-23T00:17:11.347Z,95112.63
2023-01-23T00:18:08.170Z,94990.97
2023-01-23T00:19:05.056Z,94936.19
2023-01-23T00:20:02.844Z,95025.25
2023-01-23T00:21:07.715Z,95134.69
2023-01-23T00:22:04.511Z,94951.19
2023-01-23T00:23:01.265Z,94982.31
2023-01-23T00:24:01.807Z,94925.03
2023-01-23T00:24:58.672Z,95093.59
2023-01-23T00:25:55.602Z,95123.50
2023-01-23T00:26:52.480Z,95118.53
2023-01-23T00:27:49.285Z,95149.03
2023-01-23T00:28:47.633Z,95136.38
2023-01-23T00:29:45.480Z,94983.91
2023-01-23T00:30:42.355Z,95102.66
2023-01-23T00:31:39.740Z,94565.34
2023-01-23T00:32:36.675Z,95110.63
2023-01-23T00:33:33.742Z,95154.13
2023-01-23T00:34:30.692Z,95139.09
2023-01-23T00:35:27.588Z,95099.06
2023-01-23T00:36:27.919Z,95125.28
2023-01-23T00:37:24.953Z,95006.03
2023-01-23T00:38:22.123Z,95012.59
2023-01-23T00:39:21.852Z,95076.59
2023-01-23T00:40:19.104Z,95070.56
2023-01-23T00:41:16.582Z,94918.59
2023-01-23T00:42:13.338Z,94889.41
2023-01-23T00:43:10.137Z,95157.91
2023-01-23T00:44:06.975Z,95166.44
2023-01-23T00:45:04.153Z,95167.19
2023-01-23T00:46:01.352Z,95114.47
2023-01-23T00:46:59.012Z,95161.97
2023-01-23T00:47:55.846Z,95135.59
2023-01-23T00:48:52.686Z,94966.53
2023-01-23T00:49:49.522Z,95108.66
2023-01-23T00:50:46.970Z,95118.47
2023-01-23T00:51:45.119Z,95136.25
2023-01-23T00:52:41.985Z,95158.50
2023-01-23T00:53:40.645Z,95128.63
2023-01-23T00:54:38.496Z,95050.28
2023-01-23T00:55:35.382Z,94686.38
2023-01-23T00:56:32.316Z,94866.69
2023-01-23T00:57:29.427Z,95032.22
2023-01-23T00:58:26.267Z,95043.84
2023-01-23T00:59:23.770Z,95144.63
2023-01-23T01:00:20.973Z,95121.25
2023-01-23T01:01:19.173Z,94884.50
2023-01-23T01:02:16.043Z,95076.28
2023-01-23T01:03:12.978Z,95161.78
2023-01-23T01:04:10.261Z,95113.22
2023-01-23T01:05:07.696Z,95099.44
2023-01-23T01:06:04.705Z,94938.44
2023-01-23T01:07:01.908Z,95125.31
2023-01-23T01:07:58.812Z,95108.78
2023-01-23T01:08:57.261Z,95041.03
2023-01-23T01:09:54.097Z,95129.69
2023-01-23T01:10:51.132Z,95091.56
2023-01-23T01:11:47.993Z,94867.53
2023-01-23T01:12:44.881Z,95119.63
2023-01-23T01:13:42.991Z,95134.84
2023-01-23T01:14:39.809Z,94951.66
2023-01-23T01:15:36.875Z,94951.06
2023-01-23T01:16:33.939Z,95085.31
2023-01-23T01:17:30.821Z,95130.19
2023-01-23T01:18:28.573Z,95149.75
2023-01-23T01:19:25.477Z,95083.03
2023-01-23T01:20:23.958Z,95152.13
2023-01-23T01:21:22.229Z,95140.31
2023-01-23T01:22:19.108Z,95122.53
2023-01-23T01:23:16.541Z,95118.53
2023-01-23T01:24:13.364Z,94968.63
2023-01-23T01:25:10.591Z,94955.66
2023-01-23T01:26:08.615Z,95180.53
2023-01-23T01:27:05.483Z,95117.81
2023-01-23T01:28:02.891Z,94781.44
2023-01-23T01:28:59.700Z,95042.69
2023-01-23T01:29:56.514Z,95185.22
2023-01-23T01:30:53.390Z,95166.72
2023-01-23T01:31:50.313Z,95159.25
2023-01-23T01:32:47.308Z,95076.53
2023-01-23T01:33:44.764Z,95170.44
2023-01-23T01:34:41.580Z,95113.78
2023-01-23T01:35:40.911Z,95161.31
2023-01-23T01:36:37.746Z,95008.34
2023-01-23T01:37:35.320Z,95111.78
2023-01-23T01:38:32.098Z,95030.22
2023-01-23T01:39:28.954Z,95035.09
2023-01-23T01:40:28.999Z,95170.19
2023-01-23T01:41:25.957Z,95207.59
2023-01-23T01:42:22.994Z,95170.06
2023-01-23T01:43:26.584Z,95038.75
2023-01-23T01:44:24.739Z,95112.34
2023-01-23T01:45:58.839Z,95149.47
2023-01-23T01:46:55.790Z,95131.03
2023-01-23T01:47:52.611Z,95177.50
2023-01-23T01:48:55.187Z,95153.34
2023-01-23T01:50:02.068Z,95138.00
2023-01-23T01:51:02.903Z,95004.75
2023-01-23T01:52:05.388Z,95087.84
2023-01-23T01:53:02.246Z,95121.41
2023-01-23T01:54:28.422Z,95084.50
2023-01-23T01:55:25.493Z,95122.59
2023-01-23T01:56:23.109Z,95172.16
2023-01-23T01:57:30.457Z,95153.81
2023-01-23T01:58:28.680Z,95159.28
2023-01-23T01:59:32.133Z,95172.44
2023-01-23T02:00:29.101Z,95049.91
2023-01-23T02:01:30.045Z,95055.19
2023-01-23T02:02:45.215Z,95177.72
2023-01-23T02:03:45.051Z,95181.16
2023-01-23T02:04:51.193Z,95179.66
2023-01-23T02:05:50.784Z,95156.81
2023-01-23T02:06:49.113Z,95115.28
2023-01-23T02:07:56.541Z,95162.66
2023-01-23T02:09:08.739Z,95156.38
2023-01-23T02:10:08.125Z,95129.50
2023-01-23T02:11:06.372Z,94924.53
2023-01-23T02:12:04.334Z,95115.97
2023-01-23T02:13:35.991Z,95170.19
2023-01-23T02:14:33.289Z,95169.78
2023-01-23T02:15:30.115Z,95155.50
2023-01-23T02:16:33.670Z,95159.06
2023-01-23T02:17:32.195Z,95108.06
2023-01-23T02:18:31.678Z,95052.34
2023-01-23T02:19:44.433Z,94982.50
2023-01-23T02:20:41.842Z,95154.19
2023-01-23T02:21:43.444Z,94932.75
2023-01-23T02:23:02.300Z,95152.00
2023-01-23T02:24:08.407Z,95148.13
2023-01-23T02:25:20.308Z,95142.03
2023-01-23T02:26:22.347Z,94934.50
2023-01-23T02:27:19.193Z,95060.75
2023-01-23T02:28:17.546Z,94963.88
2023-01-23T02:29:16.037Z,95163.53
2023-01-23T02:30:13.998Z,95066.81
2023-01-23T02:31:11.931Z,95147.06
2023-01-23T02:32:09.160Z,95095.59
2023-01-23T02:33:21.091Z,95145.53
2023-01-23T02:34:17.894Z,95151.78
2023-01-23T02:35:33.084Z,95053.00
2023-01-23T02:36:34.221Z,94536.00
2023-01-23T02:37:34.596Z,95199.97
2023-01-23T02:38:40.189Z,95171.53
2023-01-23T02:39:37.685Z,95164.31
2023-01-23T02:40:38.412Z,95178.72
2023-01-23T02:41:38.968Z,95012.63
2023-01-23T02:42:36.881Z,95181.78
2023-01-23T02:43:37.527Z,95090.09
2023-01-23T02:44:34.371Z,94979.09
2023-01-23T02:45:31.377Z,95165.16
2023-01-23T02:46:28.924Z,95163.28
2023-01-23T02:47:25.979Z,95151.44
2023-01-23T02:48:22.867Z,94998.84
2023-01-23T02:49:21.984Z,95149.84
2023-01-23T02:50:19.158Z,95160.66
2023-01-23T02:51:17.779Z,95169.28
2023-01-23T02:52:15.132Z,94944.75
2023-01-23T02:53:12.788Z,95146.63
2023-01-23T02:54:09.590Z,95128.53
2023-01-23T02:55:06.699Z,94752.44
2023-01-23T02:56:03.693Z,95158.53
2023-01-23T02:57:00.551Z,95179.38
2023-01-23T02:58:20.257Z,95169.69
2023-01-23T02:59:35.512Z,94878.44
2023-01-23T03:00:32.251Z,95189.38
2023-01-23T03:01:29.124Z,95170.50
2023-01-23T03:02:27.175Z,95144.09
2023-01-23T03:03:24.162Z,95182.03
2023-01-23T03:04:21.463Z,95179.63
2023-01-23T03:05:19.187Z,95169.00
2023-01-23T03:06:15.917Z,95124.78
2023-01-23T03:07:12.730Z,95025.31
2023-01-23T03:08:09.605Z,95080.41
2023-01-23T03:09:12.580Z,94846.38
2023-01-23T03:10:12.335Z,95088.31
2023-01-23T03:11:09.101Z,95171.25
2023-01-23T03:12:06.310Z,95114.34
2023-01-23T03:13:07.518Z,94945.59
2023-01-23T03:14:06.337Z,95083.72
2023-01-23T03:15:06.106Z,95056.84
2023-01-23T03:16:02.950Z,94797.22
2023-01-23T03:16:59.838Z,95024.97
2023-01-23T03:17:57.433Z,95171.78
2023-01-23T03:18:55.286Z,95182.38
2023-01-23T03:20:09.591Z,95103.34
2023-01-23T03:21:08.099Z,95170.63
2023-01-23T03:22:04.958Z,95045.78
2023-01-23T03:23:01.840Z,95124.97
2023-01-23T03:23:58.817Z,95012.88
2023-01-23T03:24:57.772Z,95178.47
2023-01-23T03:25:58.578Z,95181.28
2023-01-23T03:26:55.774Z,95006.72
2023-01-23T03:27:52.748Z,95184.50
2023-01-23T03:29:08.152Z,94808.53
2023-01-23T03:30:15.780Z,95165.22
2023-01-23T03:31:13.637Z,95052.16
2023-01-23T03:32:12.217Z,95078.41
2023-01-23T03:33:08.966Z,95030.97
2023-01-23T03:34:05.859Z,95067.94
2023-01-23T03:35:02.694Z,95181.06
2023-01-23T03:37:15.111Z,95180.66
2023-01-23T03:38:11.980Z,94977.88
2023-01-23T03:39:27.496Z,94858.13
2023-01-23T03:40:44.112Z,95130.97
2023-01-23T03:41:42.072Z,95144.09
2023-01-23T03:42:38.887Z,94988.84
2023-01-23T03:43:35.649Z,95199.25
2023-01-23T03:44:32.527Z,95188.59
2023-01-23T03:45:29.498Z,95127.53
2023-01-23T03:46:26.275Z,95182.31
2023-01-23T03:47:23.188Z,95067.19
2023-01-23T03:48:19.987Z,95203.75
2023-01-23T03:49:18.024Z,95151.22
2023-01-23T03:50:15.105Z,94799.63
2023-01-23T03:51:11.948Z,95192.00
2023-01-23T03:52:08.763Z,95200.63
2023-01-23T03:53:09.083Z,95129.19
2023-01-23T03:54:05.921Z,95189.53
2023-01-23T03:55:02.622Z,95189.09
2023-01-23T03:55:59.462Z,95082.44
2023-01-23T03:56:56.629Z,95176.06
2023-01-23T03:57:53.446Z,95171.25
2023-01-23T03:58:50.313Z,95162.41
2023-01-23T03:59:47.229Z,95182.16
2023-01-23T04:00:44.140Z,95182.13
2023-01-23T04:01:41.514Z,95199.97
2023-01-23T04:02:38.313Z,95196.31
2023-01-23T04:03:35.953Z,95127.22
2023-01-23T04:04:33.689Z,95167.19
2023-01-23T04:05:30.778Z,95175.81
2023-01-23T04:06:29.787Z,94811.91
2023-01-23T04:07:26.517Z,95201.41
2023-01-23T04:08:23.293Z,95045.50
2023-01-23T04:09:20.231Z,95035.59
2023-01-23T04:10:17.147Z,94975.84
2023-01-23T04:11:14.660Z,95152.31
2023-01-23T04:12:11.567Z,95044.97
2023-01-23T04:13:08.366Z,95095.31
2023-01-23T04:14:05.187Z,95178.91
2023-01-23T04:15:01.925Z,94984.97
2023-01-23T04:15:59.803Z,95112.34
2023-01-23T04:16:56.685Z,94937.53
2023-01-23T04:17:53.509Z,95215.19
2023-01-23T04:18:51.618Z,95205.63
2023-01-23T04:19:48.498Z,95200.84
2023-01-23T04:20:45.255Z,94904.88
2023-01-23T04:21:42.026Z,95200.25
2023-01-23T04:22:39.448Z,95020.88
2023-01-23T04:23:36.460Z,95182.56
2023-01-23T04:24:33.431Z,94798.44
2023-01-23T04:25:30.439Z,95174.22
2023-01-23T04:26:27.215Z,95036.03
2023-01-23T04:27:24.259Z,95202.09
2023-01-23T04:28:21.574Z,95075.25
2023-01-23T04:29:18.685Z,95173.81
2023-01-23T04:30:15.598Z,95127.38
2023-01-23T04:31:12.511Z,94911.38
2023-01-23T04:32:10.108Z,95151.94
2023-01-23T04:33:07.604Z,95042.28
2023-01-23T04:34:04.476Z,95101.91
2023-01-23T04:35:01.407Z,95149.69
2023-01-23T04:36:04.166Z,95142.69
2023-01-23T04:37:01.169Z,95197.03
2023-01-23T04:37:58.047Z,95206.66
2023-01-23T04:38:54.941Z,95218.75
2023-01-23T04:39:51.687Z,95019.97
2023-01-23T04:40:49.930Z,95236.16
2023-01-23T04:41:46.717Z,95206.25
2023-01-23T04:42:43.522Z,95202.25
2023-01-23T04:43:40.235Z,95129.22
2023-01-23T04:44:37.051Z,95205.88
2023-01-23T04:45:33.810Z,95207.06
2023-01-23T04:46:30.489Z,95130.25
2023-01-23T04:47:27.423Z,95167.66
2023-01-23T04:48:25.462Z,95231.31
2023-01-23T04:49:24.183Z,95222.81
2023-01-23T04:50:21.304Z,95163.16
2023-01-23T04:51:18.192Z,94621.78
2023-01-23T04:52:15.057Z,95219.94
2023-01-23T04:53:11.911Z,95128.19
2023-01-23T04:54:08.704Z,95225.47
2023-01-23T04:55:06.003Z,95123.75
2023-01-23T04:56:04.266Z,95218.81
2023-01-23T04:57:01.054Z,95232.13
2023-01-23T04:57:57.908Z,95233.94
2023-01-23T04:58:55.218Z,94886.78
2023-01-23T04:59:52.004Z,95141.56
2023-01-23T05:00:48.917Z,95065.97
2023-01-23T05:01:45.814Z,95165.78
2023-01-23T05:02:42.688Z,95240.34
2023-01-23T05:03:39.549Z,95223.66
2023-01-23T05:04:36.518Z,95234.97
2023-01-23T05:05:33.505Z,95228.47
2023-01-23T05:06:31.075Z,95214.72
2023-01-23T05:07:28.423Z,95134.91
2023-01-23T05:08:25.243Z,95224.59
2023-01-23T05:09:22.082Z,95248.72
2023-01-23T05:10:19.683Z,94967.06
2023-01-23T05:11:17.035Z,95213.34
2023-01-23T05:12:13.846Z,95226.88
2023-01-23T05:13:10.757Z,95241.44
2023-01-23T05:14:07.532Z,95251.56
2023-01-23T05:15:04.563Z,95199.38
2023-01-23T05:16:01.395Z,95020.75
2023-01-23T05:16:58.307Z,95247.50
2023-01-23T05:17:55.057Z,95258.00
2023-01-23T05:18:51.907Z,95241.66
2023-01-23T05:19:48.827Z,95169.03
2023-01-23T05:20:45.650Z,95264.31
2023-01-23T05:21:42.583Z,95254.78
2023-01-23T05:22:52.429Z,95277.25
2023-01-23T05:23:49.377Z,95208.09
2023-01-23T05:24:46.175Z,95232.13
2023-01-23T05:25:43.191Z,95137.06
2023-01-23T05:26:40.014Z,95036.50
2023-01-23T05:27:36.809Z,95083.75
2023-01-23T05:28:33.622Z,95277.84
2023-01-23T05:29:30.492Z,95269.13
2023-01-23T05:30:27.326Z,95226.06
2023-01-23T05:31:24.282Z,95058.38
2023-01-23T05:32:21.309Z,95287.56
2023-01-23T05:33:18.086Z,95294.25
2023-01-23T05:34:14.846Z,95222.44
2023-01-23T05:35:12.157Z,95294.84
2023-01-23T05:36:11.047Z,95290.97
2023-01-23T05:37:07.808Z,95267.72
2023-01-23T05:38:04.588Z,95161.75
2023-01-23T05:39:01.429Z,95282.13
2023-01-23T05:39:58.408Z,95290.59
2023-01-23T05:40:55.186Z,95285.75
2023-01-23T05:41:52.404Z,95066.00
2023-01-23T05:42:49.819Z,95269.38
2023-01-23T05:43:46.668Z,95255.81
2023-01-23T05:44:43.489Z,95277.66
2023-01-23T05:45:40.265Z,95246.69
2023-01-23T05:46:37.065Z,95299.28
2023-01-23T05:47:34.169Z,95262.44
2023-01-23T05:48:30.916Z,95265.22
2023-01-23T05:49:27.676Z,95281.84
2023-01-23T05:50:25.480Z,95231.72
2023-01-23T05:51:23.518Z,95186.84
2023-01-23T05:52:21.911Z,95215.09
2023-01-23T05:53:18.833Z,95183.34
2023-01-23T05:54:15.634Z,95279.38
2023-01-23T05:55:12.503Z,95233.31
2023-01-23T05:56:10.500Z,95234.91
2023-01-23T05:57:08.818Z,95278.25
2023-01-23T05:58:06.089Z,94988.06
2023-01-23T05:59:04.244Z,95280.22
2023-01-23T06:00:01.161Z,95240.31
2023-01-23T06:00:57.956Z,95273.31
2023-01-23T06:01:54.778Z,95191.28
2023-01-23T06:02:51.588Z,95144.34
2023-01-23T06:03:48.868Z,95274.94
2023-01-23T06:04:48.454Z,95298.25
2023-01-23T06:05:45.190Z,95290.53
2023-01-23T06:06:45.759Z,95319.69
2023-01-23T06:07:42.578Z,95222.00
2023-01-23T06:08:39.426Z,95245.88
2023-01-23T06:09:36.154Z,95099.13
2023-01-23T06:10:33.165Z,95283.06
2023-01-23T06:11:29.936Z,95184.00
2023-01-23T06:12:26.791Z,95289.16
2023-01-23T06:13:23.560Z,95102.56
2023-01-23T06:14:20.427Z,95108.00
2023-01-23T06:15:17.227Z,95304.94
2023-01-23T06:16:14.166Z,95280.66
2023-01-23T06:17:12.441Z,95151.25
2023-01-23T06:18:09.255Z,95278.66
2023-01-23T06:19:06.244Z,95288.16
2023-01-23T06:20:04.280Z,95296.47
2023-01-23T06:21:02.088Z,95205.03
2023-01-23T06:21:58.942Z,95305.34
2023-01-23T06:22:55.776Z,95295.44
2023-01-23T06:23:52.708Z,95223.44
2023-01-23T06:24:49.545Z,95316.47
2023-01-23T06:25:46.506Z,95267.72
2023-01-23T06:26:43.506Z,95317.13
2023-01-23T06:27:40.330Z,95084.19
2023-01-23T06:28:37.050Z,95325.19
2023-01-23T06:29:36.983Z,95135.50
2023-01-23T06:30:34.273Z,95307.75
2023-01-23T06:31:32.636Z,95322.31
2023-01-23T06:32:29.631Z,95222.44
2023-01-23T06:33:26.512Z,95307.34
2023-01-23T06:34:23.306Z,95297.25
2023-01-23T06:35:20.273Z,95322.19
2023-01-23T06:36:17.657Z,95339.78
2023-01-23T06:37:14.502Z,95315.09
2023-01-23T06:38:11.340Z,95341.00
2023-01-23T06:39:11.629Z,95139.94
2023-01-23T06:40:13.188Z,95251.34
2023-01-23T06:41:10.461Z,95288.34
2023-01-23T06:42:10.301Z,95155.31
2023-01-23T06:43:07.241Z,95267.56
2023-01-23T06:44:04.197Z,95278.44
2023-01-23T06:45:00.986Z,95210.47
2023-01-23T06:45:57.989Z,95127.19
2023-01-23T06:46:54.743Z,95136.31
2023-01-23T06:47:54.622Z,95314.28
2023-01-23T06:48:52.634Z,95157.53
2023-01-23T06:49:49.382Z,95321.56
2023-01-23T06:50:46.231Z,95307.81
2023-01-23T06:51:43.082Z,95316.09
2023-01-23T06:52:40.000Z,95314.28
2023-01-23T06:53:37.172Z,95218.38
2023-01-23T06:54:34.075Z,95284.13
2023-01-23T06:55:30.941Z,95335.75
2023-01-23T06:56:27.848Z,95320.75
2023-01-23T06:57:24.704Z,95338.56
2023-01-23T06:58:21.564Z,95353.97
2023-01-23T06:59:20.802Z,95333.91
2023-01-23T07:00:18.135Z,95137.31
2023-01-23T07:01:18.512Z,95358.81
2023-01-23T07:02:15.533Z,95156.59
2023-01-23T07:03:16.647Z,95397.22
2023-01-23T07:04:13.456Z,95248.25
2023-01-23T07:05:10.210Z,95166.25
2023-01-23T07:06:07.572Z,95374.94
2023-01-23T07:07:05.234Z,95372.78
2023-01-23T07:08:04.100Z,95169.34
2023-01-23T07:09:02.094Z,95231.88
2023-01-23T07:09:58.850Z,95182.31
2023-01-23T07:10:55.694Z,95385.50
2023-01-23T07:11:52.528Z,95194.38
2023-01-23T07:12:50.664Z,95318.22
2023-01-23T07:13:50.003Z,95326.13
2023-01-23T07:14:46.809Z,95370.50
2023-01-23T07:15:46.926Z,95401.25
2023-01-23T07:16:43.754Z,95284.66
2023-01-23T07:17:40.552Z,95375.00
2023-01-23T07:18:37.444Z,95355.56
2023-01-23T07:19:34.298Z,95279.78
2023-01-23T07:20:31.135Z,95367.66
2023-01-23T07:21:28.215Z,95373.34
2023-01-23T07:22:24.998Z,95340.38
2023-01-23T07:23:22.492Z,95228.84
2023-01-23T07:24:19.353Z,95347.34
2023-01-23T07:25:16.163Z,95383.44
2023-01-23T07:26:13.074Z,95194.44
2023-01-23T07:27:09.948Z,95179.06
2023-01-23T07:28:09.506Z,95347.38
2023-01-23T07:29:08.899Z,95370.69
2023-01-23T07:30:06.164Z,95393.59
2023-01-23T07:31:04.140Z,95273.13
2023-01-23T07:32:01.303Z,95365.59
2023-01-23T07:32:58.617Z,95382.44
2023-01-23T07:33:55.945Z,95278.16
2023-01-23T07:34:53.255Z,95311.75
2023-01-23T07:35:50.079Z,95360.00
2023-01-23T07:36:46.796Z,95383.22
2023-01-23T07:37:43.600Z,95350.22
2023-01-23T07:38:40.345Z,95259.31
2023-01-23T07:39:37.157Z,95233.53
2023-01-23T07:40:33.941Z,95291.47
2023-01-23T07:41:30.714Z,95355.03
2023-01-23T07:42:27.632Z,95389.00
2023-01-23T07:43:24.420Z,95415.13
2023-01-23T07:44:22.372Z,95378.19
2023-01-23T07:45:19.208Z,95418.88
2023-01-23T07:46:16.083Z,95368.16
2023-01-23T07:47:12.953Z,95102.94
2023-01-23T07:48:09.859Z,95097.63
2023-01-23T07:49:06.651Z,95394.56
2023-01-23T07:50:03.987Z,95375.97
2023-01-23T07:51:02.997Z,95324.00
2023-01-23T07:51:59.730Z,95318.50
2023-01-23T07:52:57.023Z,95369.97
2023-01-23T07:53:53.847Z,95406.06
2023-01-23T07:54:50.543Z,95394.78
2023-01-23T07:55:47.439Z,95369.63
2023-01-23T07:56:44.277Z,95400.72
2023-01-23T07:57:41.007Z,95401.47
2023-01-23T07:58:37.855Z,95403.53
2023-01-23T07:59:34.614Z,95413.47
2023-01-23T08:00:31.885Z,95204.59
2023-01-23T08:01:28.958Z,95266.59
2023-01-23T08:02:25.812Z,95390.31
2023-01-23T08:03:22.613Z,94892.41
2023-01-23T08:04:22.518Z,95408.88
2023-01-23T08:05:19.274Z,95390.91
2023-01-23T08:06:16.349Z,95371.25
2023-01-23T08:07:13.212Z,95409.38
2023-01-23T08:08:14.058Z,95376.81
2023-01-23T08:09:10.875Z,95142.22
2023-01-23T08:10:08.984Z,95178.03
2023-01-23T08:11:07.547Z,95306.78
2023-01-23T08:12:04.984Z,95363.22
2023-01-23T08:13:01.778Z,95421.44
2023-01-23T08:14:00.592Z,95434.28
2023-01-23T08:14:57.492Z,95411.28
2023-01-23T08:15:54.636Z,95413.88
2023-01-23T08:16:52.899Z,95407.13
2023-01-23T08:17:49.839Z,95159.63
2023-01-23T08:18:46.707Z,95419.34
2023-01-23T08:19:43.659Z,95443.19
2023-01-23T08:20:40.489Z,95316.63
2023-01-23T08:21:37.217Z,95440.59
2023-01-23T08:22:34.013Z,95283.19
2023-01-23T08:23:33.594Z,95411.94
2023-01-23T08:24:30.464Z,95390.66
2023-01-23T08:25:27.340Z,95354.91
2023-01-23T08:26:24.129Z,95356.47
2023-01-23T08:27:21.047Z,95432.69
2023-01-23T08:28:17.766Z,95352.53
2023-01-23T08:29:14.532Z,95223.84
2023-01-23T08:30:11.846Z,95344.94
2023-01-23T08:31:10.914Z,95431.50
2023-01-23T08:32:07.730Z,95425.44
2023-01-23T08:33:04.828Z,95423.13
2023-01-23T08:34:01.620Z,95135.03
2023-01-23T08:34:58.379Z,95409.41
2023-01-23T08:35:58.169Z,95422.56
2023-01-23T08:36:54.998Z,95328.09
2023-01-23T08:37:51.759Z,95427.59
2023-01-23T08:38:48.664Z,95410.53
2023-01-23T08:39:45.467Z,95418.34
2023-01-23T08:40:42.317Z,95318.59
2023-01-23T08:41:39.074Z,95232.50
2023-01-23T08:42:35.981Z,95366.03
2023-01-23T08:43:33.477Z,95407.13
2023-01-23T08:44:31.391Z,95372.09
2023-01-23T08:45:28.201Z,95406.91
2023-01-23T08:46:25.029Z,95213.69
2023-01-23T08:47:22.080Z,95402.59
2023-01-23T08:48:21.051Z,95392.09
2023-01-23T08:49:20.388Z,95436.06
2023-01-23T08:50:17.741Z,95009.78
2023-01-23T08:51:14.982Z,95348.56
2023-01-23T08:52:11.848Z,95183.25
2023-01-23T08:53:09.231Z,95290.53
2023-01-23T08:54:06.214Z,95234.16
2023-01-23T08:55:03.332Z,95378.66
2023-01-23T08:56:06.464Z,95336.63
2023-01-23T08:57:03.295Z,95408.63
2023-01-23T08:58:00.261Z,95382.34
2023-01-23T08:58:57.453Z,95383.06
2023-01-23T08:59:54.195Z,95335.25
2023-01-23T09:00:50.950Z,95211.84
2023-01-23T09:01:48.069Z,95388.41
2023-01-23T09:02:45.044Z,95439.66
2023-01-23T09:03:41.941Z,95339.06
2023-01-23T09:04:38.860Z,95413.69
2023-01-23T09:05:36.311Z,95388.25
2023-01-23T09:06:33.267Z,95193.44
2023-01-23T09:07:30.499Z,95370.31
2023-01-23T09:08:27.293Z,95361.22
2023-01-23T09:09:24.205Z,95061.28
2023-01-23T09:10:21.481Z,95457.44
2023-01-23T09:11:19.283Z,95423.16
2023-01-23T09:12:16.051Z,95384.16
2023-01-23T09:13:12.969Z,95373.63
2023-01-23T09:14:09.691Z,95235.16
2023-01-23T09:15:10.553Z,95375.78
2023-01-23T09:16:10.888Z,95426.97
2023-01-23T09:17:07.673Z,95398.56
2023-01-23T09:18:04.559Z,95181.75
2023-01-23T09:19:01.334Z,95398.56
2023-01-23T09:20:00.592Z,95428.44
2023-01-23T09:20:57.958Z,95385.19
2023-01-23T09:21:56.973Z,95397.25
2023-01-23T09:22:53.730Z,95424.22
2023-01-23T09:23:50.545Z,95355.78
2023-01-23T09:24:47.308Z,95349.34
2023-01-23T09:25:47.362Z,95257.97
2023-01-23T09:26:44.215Z,95437.84
2023-01-23T09:27:41.034Z,95120.94
2023-01-23T09:28:41.954Z,95430.56
2023-01-23T09:29:38.682Z,94948.84
2023-01-23T09:30:35.934Z,95438.03
2023-01-23T09:31:32.762Z,95432.44
2023-01-23T09:32:29.714Z,95447.84
2023-01-23T09:33:27.626Z,95412.84
2023-01-23T09:34:24.583Z,95406.78
2023-01-23T09:35:23.352Z,95414.41
2023-01-23T09:36:33.645Z,95354.91
2023-01-23T09:37:59.100Z,95289.66
2023-01-23T09:38:56.048Z,95186.59
2023-01-23T09:39:55.919Z,95449.47
2023-01-23T09:40:57.566Z,95360.41
2023-01-23T09:41:54.497Z,95208.81
2023-01-23T09:42:55.073Z,95405.91
2023-01-23T09:44:05.308Z,95404.47
2023-01-23T09:45:06.369Z,95374.56
2023-01-23T09:46:18.337Z,95062.00
2023-01-23T09:47:43.831Z,95438.84
2023-01-23T09:48:43.514Z,95384.91
2023-01-23T09:50:00.615Z,95351.22
2023-01-23T09:51:11.312Z,95360.56
2023-01-23T09:52:16.524Z,95416.59
2023-01-23T09:53:19.464Z,95432.25
2023-01-23T09:54:28.326Z,95424.63
2023-01-23T09:56:05.282Z,95411.69
2023-01-23T09:57:13.305Z,95336.28
2023-01-23T09:58:22.289Z,95426.41
2023-01-23T09:59:53.769Z,95429.03
2023-01-23T10:00:55.604Z,95441.69
2023-01-23T10:01:52.671Z,95446.06
2023-01-23T10:02:50.016Z,95425.59
2023-01-23T10:03:46.925Z,95415.31
2023-01-23T10:04:43.870Z,95435.63
2023-01-23T10:06:14.113Z,95418.59
2023-01-23T10:07:44.752Z,95420.31
2023-01-23T10:09:18.123Z,95423.88
2023-01-23T10:10:52.089Z,95418.25
2023-01-23T10:12:16.864Z,95341.72
2023-01-23T10:13:18.911Z,95443.28
2023-01-23T10:14:46.617Z,95429.75
2023-01-23T10:16:50.308Z,95426.13
2023-01-23T10:17:53.564Z,95425.28
2023-01-23T10:19:02.170Z,95416.78
2023-01-23T10:20:11.120Z,95418.31
2023-01-23T10:21:43.855Z,95251.66
2023-01-23T10:23:11.424Z,95429.75
2023-01-23T10:24:40.514Z,95421.94
2023-01-23T10:25:41.195Z,95253.22
2023-01-23T10:26:43.679Z,95444.22
2023-01-23T10:27:44.344Z,95359.75
2023-01-23T10:28:44.135Z,95433.88
2023-01-23T10:29:47.726Z,95400.06
2023-01-23T10:30:52.203Z,95407.53
2023-01-23T10:31:56.426Z,95364.72
2023-01-23T10:33:07.368Z,95451.25
2023-01-23T10:34:09.958Z,95425.34
2023-01-23T10:35:23.779Z,95364.47
2023-01-23T10:36:41.824Z,95371.97
2023-01-23T10:38:03.835Z,95435.09
2023-01-23T10:39:05.962Z,95393.09
2023-01-23T10:40:05.482Z,95440.81
2023-01-23T10:41:14.695Z,95426.22
2023-01-23T10:42:13.590Z,95418.00
2023-01-23T10:43:22.248Z,95433.41
2023-01-23T10:44:20.843Z,95407.00
2023-01-23T10:45:21.716Z,95233.84
2023-01-23T10:46:28.220Z,95388.34
2023-01-23T10:47:44.203Z,95401.69
2023-01-23T10:48:44.387Z,95416.81
2023-01-23T10:49:45.507Z,95403.03
2023-01-23T10:50:42.244Z,95329.53
2023-01-23T10:51:39.009Z,95401.13
2023-01-23T10:52:37.189Z,95410.97
2023-01-23T10:53:33.936Z,95385.75
2023-01-23T10:54:32.986Z,95214.41
2023-01-23T10:55:31.301Z,95421.75
2023-01-23T10:56:28.635Z,95362.91
2023-01-23T10:57:33.912Z,95391.59
2023-01-23T10:58:44.868Z,95403.53
2023-01-23T10:59:54.273Z,95276.53
2023-01-23T11:00:51.213Z,95394.75
2023-01-23T11:02:01.062Z,95392.44
2023-01-23T11:03:20.640Z,95387.31
2023-01-23T11:04:23.922Z,95292.22
2023-01-23T11:05:52.448Z,95323.19
2023-01-23T11:07:06.567Z,95190.50
2023-01-23T11:08:03.389Z,95384.22
2023-01-23T11:09:01.039Z,95419.81
2023-01-23T11:10:08.155Z,95422.13
2023-01-23T11:11:16.848Z,95415.72
2023-01-23T11:12:20.105Z,95393.03
2023-01-23T11:13:30.481Z,95422.69
2023-01-23T11:14:27.445Z,95412.78
2023-01-23T11:15:31.682Z,95415.06
2023-01-23T11:16:28.618Z,95434.91
2023-01-23T11:17:33.651Z,95396.09
2023-01-23T11:18:45.308Z,95371.03
2023-01-23T11:19:45.412Z,95356.03
2023-01-23T11:20:55.531Z,95392.69
2023-01-23T11:21:57.064Z,95409.75
2023-01-23T11:23:05.263Z,95402.38
2023-01-23T11:24:30.645Z,95428.88
2023-01-23T11:25:32.318Z,95404.88
2023-01-23T11:26:33.777Z,95427.25
2023-01-23T11:27:31.194Z,95385.19
2023-01-23T11:28:36.191Z,95415.03
2023-01-23T11:30:16.956Z,95399.81
2023-01-23T11:31:22.860Z,95392.56
2023-01-23T11:32:21.899Z,95408.16
2023-01-23T11:33:41.306Z,95413.63
2023-01-23T11:34:46.494Z,95416.91
2023-01-23T11:36:00.217Z,95407.41
2023-01-23T11:37:05.632Z,95430.78
2023-01-23T11:38:06.453Z,95386.16
2023-01-23T11:39:42.485Z,95363.91
2023-01-23T11:40:39.390Z,95368.47
2023-01-23T11:41:36.919Z,95447.25
2023-01-23T11:42:40.225Z,95407.56
2023-01-23T11:43:37.671Z,95404.75
2023-01-23T11:44:44.960Z,95191.59